Time;durP1;ratioP1;P1;durP2;ratioP2;P2;SDS_P1;SDS_P2;PMS_P1;PMS_P2;Temp;Humidity;BMP_temperature;BMP_pressure;BME280_temperature;BME280_humidity;BME280_pressure;Samples;Min_cycle;Max_cycle;Signal;HPM_P1;HPM_P2
2022/11/08 00:03:41;;;;;;;10.32;3.30;;;;;;;;;;5081345;28;20022;-55
2022/11/08 00:14:18;;;;;;;8.60;3.65;;;;;;;;;;5089627;28;20023;-56
2022/11/08 00:16:45;;;;;;;9.32;3.60;;;;;;;;;;5077495;28;20050;-55
2022/11/08 00:19:10;;;;;;;9.10;3.67;;;;;;;;;;5080293;28;20024;-56
2022/11/08 00:21:35;;;;;;;8.02;3.95;;;;;;;;;;5079670;28;20016;-55
2022/11/08 00:24:01;;;;;;;9.95;3.72;;;;;;;;;;5077812;28;20031;-55
2022/11/08 00:26:26;;;;;;;12.27;4.07;;;;;;;;;;5081940;28;20020;-56
2022/11/08 00:28:51;;;;;;;9.13;3.45;;;;;;;;;;5081533;28;20016;-55
2022/11/08 00:31:16;;;;;;;10.40;3.85;;;;;;;;;;5075204;28;20032;-57
2022/11/08 00:33:42;;;;;;;9.02;3.33;;;;;;;;;;5081009;28;20109;-55
2022/11/08 00:36:07;;;;;;;8.77;3.65;;;;;;;;;;5075980;28;20042;-55
2022/11/08 00:38:32;;;;;;;7.72;3.53;;;;;;;;;;5081386;28;20024;-55
2022/11/08 00:40:57;;;;;;;11.65;3.83;;;;;;;;;;5110486;27;20020;-56
2022/11/08 00:43:23;;;;;;;8.20;3.45;;;;;;;;;;5077333;28;20030;-56
2022/11/08 00:45:48;;;;;;;10.02;3.60;;;;;;;;;;5080736;28;20147;-55
2022/11/08 00:48:13;;;;;;;11.63;3.70;;;;;;;;;;5072788;28;20036;-55
2022/11/08 00:50:39;;;;;;;9.43;3.63;;;;;;;;;;5087055;28;20043;-56
2022/11/08 00:53:04;;;;;;;8.50;3.33;;;;;;;;;;5067601;28;20097;-57
2022/11/08 00:55:29;;;;;;;7.13;3.30;;;;;;;;;;5083045;28;20031;-56
2022/11/08 00:57:54;;;;;;;9.77;3.30;;;;;;;;;;5079667;28;20013;-55
2022/11/08 01:00:19;;;;;;;15.23;3.95;;;;;;;;;;5078134;28;20030;-55
2022/11/08 01:02:45;;;;;;;10.10;3.33;;;;;;;;;;5086745;28;20527;-58
2022/11/08 01:05:10;;;;;;;13.35;4.00;;;;;;;;;;5084000;28;20048;-57
2022/11/08 01:07:37;;;;;;;9.52;3.80;;;;;;;;;;5082733;28;20074;-55
2022/11/08 01:10:02;;;;;;;11.65;3.78;;;;;;;;;;5072057;28;20042;-57
2022/11/08 01:12:27;;;;;;;8.32;4.05;;;;;;;;;;5107523;27;20024;-58
2022/11/08 01:14:53;;;;;;;6.47;3.60;;;;;;;;;;5082766;28;20032;-57
2022/11/08 01:17:19;;;;;;;10.65;4.00;;;;;;;;;;5078676;28;20028;-58
2022/11/08 01:19:44;;;;;;;8.98;3.70;;;;;;;;;;5075342;28;20031;-54
2022/11/08 01:22:09;;;;;;;8.38;3.72;;;;;;;;;;5075426;28;20081;-57
2022/11/08 01:24:34;;;;;;;7.88;4.68;;;;;;;;;;5082369;28;20100;-58
2022/11/08 01:26:59;;;;;;;10.00;4.10;;;;;;;;;;5078493;28;20496;-57
2022/11/08 01:29:25;;;;;;;9.85;4.15;;;;;;;;;;5079525;28;20023;-56
2022/11/08 01:31:50;;;;;;;11.00;4.55;;;;;;;;;;5077180;28;20028;-56
2022/11/08 01:34:15;;;;;;;13.98;4.70;;;;;;;;;;5079602;28;20024;-55
2022/11/08 01:36:41;;;;;;;13.35;4.72;;;;;;;;;;5075956;28;20026;-57
2022/11/08 01:39:06;;;;;;;12.70;4.57;;;;;;;;;;5090337;28;20024;-56
2022/11/08 01:41:31;;;;;;;11.20;4.20;;;;;;;;;;5082434;28;20126;-56
2022/11/08 01:43:57;;;;;;;10.43;4.80;;;;;;;;;;5089412;28;20043;-56
2022/11/08 01:46:38;;;;;;;14.50;5.28;;;;;;;;;;5077419;28;20021;-56
2022/11/08 01:49:12;;;;;;;12.90;4.88;;;;;;;;;;5093470;28;20059;-55
2022/11/08 01:51:38;;;;;;;11.90;5.35;;;;;;;;;;5088654;28;20035;-56
2022/11/08 01:54:04;;;;;;;11.20;5.65;;;;;;;;;;5077868;28;20018;-55
2022/11/08 01:56:29;;;;;;;10.38;5.45;;;;;;;;;;5083115;28;20024;-55
2022/11/08 01:58:55;;;;;;;11.00;5.47;;;;;;;;;;5073446;28;20024;-56
2022/11/08 02:01:20;;;;;;;12.70;6.18;;;;;;;;;;5086736;28;20088;-55
2022/11/08 02:03:46;;;;;;;14.85;5.55;;;;;;;;;;5075092;28;20451;-55
2022/11/08 02:06:11;;;;;;;12.98;5.80;;;;;;;;;;5083999;28;20036;-58
2022/11/08 02:08:37;;;;;;;15.55;6.38;;;;;;;;;;5084423;28;20032;-54
2022/11/08 02:11:02;;;;;;;12.32;5.70;;;;;;;;;;5079422;28;20090;-54
2022/11/08 02:13:28;;;;;;;13.75;5.75;;;;;;;;;;5072759;28;20115;-54
2022/11/08 02:15:53;;;;;;;9.55;5.57;;;;;;;;;;5088429;28;20065;-55
2022/11/08 02:18:19;;;;;;;13.00;6.60;;;;;;;;;;5082968;28;20379;-55
2022/11/08 02:20:47;;;;;;;17.35;6.57;;;;;;;;;;5070107;28;20066;-55
2022/11/08 02:23:33;;;;;;;12.70;5.80;;;;;;;;;;5081073;28;20089;-56
2022/11/08 02:25:58;;;;;;;10.32;5.72;;;;;;;;;;5074808;28;20046;-55
2022/11/08 02:28:23;;;;;;;10.32;5.78;;;;;;;;;;5083831;28;20028;-55
2022/11/08 02:30:48;;;;;;;13.07;5.53;;;;;;;;;;5075545;28;20286;-56
2022/11/08 02:33:18;;;;;;;17.38;6.57;;;;;;;;;;5072055;28;20021;-56
2022/11/08 02:35:50;;;;;;;14.27;5.97;;;;;;;;;;5069185;28;20023;-56
2022/11/08 02:38:16;;;;;;;8.93;5.80;;;;;;;;;;5114264;27;20042;-56
2022/11/08 02:40:46;;;;;;;14.65;5.72;;;;;;;;;;5082030;28;20439;-56
2022/11/08 02:43:11;;;;;;;10.48;5.70;;;;;;;;;;5069526;28;20025;-56
2022/11/08 02:45:36;;;;;;;13.40;5.80;;;;;;;;;;5085738;28;20051;-56
2022/11/08 02:48:01;;;;;;;9.98;5.95;;;;;;;;;;5082295;28;20016;-55
2022/11/08 02:50:26;;;;;;;14.15;6.68;;;;;;;;;;5091323;28;20186;-55
2022/11/08 02:52:52;;;;;;;11.00;6.78;;;;;;;;;;5088324;28;20396;-57
2022/11/08 02:55:17;;;;;;;13.18;6.40;;;;;;;;;;5079240;28;20398;-57
2022/11/08 02:57:42;;;;;;;14.85;6.43;;;;;;;;;;5080890;28;20620;-56
2022/11/08 03:00:08;;;;;;;15.32;6.95;;;;;;;;;;5078940;28;20024;-55
2022/11/08 03:02:33;;;;;;;16.85;7.57;;;;;;;;;;5088220;28;20033;-57
2022/11/08 03:04:58;;;;;;;16.17;7.40;;;;;;;;;;5071192;28;20119;-55
2022/11/08 03:07:23;;;;;;;12.68;8.30;;;;;;;;;;5076099;28;20020;-55
2022/11/08 03:09:48;;;;;;;17.48;6.85;;;;;;;;;;5082055;28;20062;-57
2022/11/08 03:12:14;;;;;;;13.65;7.03;;;;;;;;;;5089928;28;20028;-56
2022/11/08 03:14:39;;;;;;;15.73;8.00;;;;;;;;;;5085038;28;20030;-54
2022/11/08 03:17:04;;;;;;;14.93;7.35;;;;;;;;;;5073979;28;20594;-57
2022/11/08 03:19:29;;;;;;;18.65;8.75;;;;;;;;;;5075798;28;20020;-57
2022/11/08 03:21:55;;;;;;;16.67;8.95;;;;;;;;;;5078089;28;20130;-56
2022/11/08 03:24:20;;;;;;;16.42;9.60;;;;;;;;;;5075441;28;20012;-55
2022/11/08 03:26:45;;;;;;;17.70;9.10;;;;;;;;;;5077344;28;20032;-55
2022/11/08 03:29:10;;;;;;;16.08;9.10;;;;;;;;;;5076696;28;20019;-57
2022/11/08 03:31:36;;;;;;;19.63;9.50;;;;;;;;;;5086608;28;20048;-56
2022/11/08 03:34:01;;;;;;;24.63;10.00;;;;;;;;;;5082624;28;20070;-56
2022/11/08 03:36:26;;;;;;;19.55;9.85;;;;;;;;;;5088246;28;20042;-57
2022/11/08 03:38:51;;;;;;;23.75;11.35;;;;;;;;;;5074671;28;20062;-56
2022/11/08 03:41:16;;;;;;;20.92;10.68;;;;;;;;;;5087800;28;20040;-56
2022/11/08 03:43:42;;;;;;;21.45;11.18;;;;;;;;;;5077649;28;20027;-56
2022/11/08 03:46:07;;;;;;;22.75;10.60;;;;;;;;;;5076611;28;20020;-57
2022/11/08 03:48:32;;;;;;;21.85;11.35;;;;;;;;;;5078648;28;20113;-56
2022/11/08 03:50:57;;;;;;;23.60;11.75;;;;;;;;;;5070697;28;20036;-57
2022/11/08 03:53:23;;;;;;;24.30;11.40;;;;;;;;;;5080539;28;20058;-56
2022/11/08 03:55:48;;;;;;;20.38;11.98;;;;;;;;;;5080645;28;20135;-56
2022/11/08 03:58:13;;;;;;;25.17;13.13;;;;;;;;;;5076538;28;20035;-56
2022/11/08 04:00:39;;;;;;;22.48;13.15;;;;;;;;;;5079978;28;20046;-55
2022/11/08 04:03:04;;;;;;;27.92;12.40;;;;;;;;;;5095196;28;20043;-56
2022/11/08 04:05:31;;;;;;;20.60;10.63;;;;;;;;;;5080151;28;20146;-56
2022/11/08 04:07:56;;;;;;;24.02;11.70;;;;;;;;;;5075496;28;20180;-56
2022/11/08 04:10:21;;;;;;;19.40;9.50;;;;;;;;;;5085977;28;20028;-57
2022/11/08 04:15:30;;;;;;;18.83;9.68;;;;;;;;;;5078231;28;20031;-55
2022/11/08 04:23:24;;;;;;;18.67;6.47;;;;;;;;;;5082586;28;20028;-55
2022/11/08 04:25:55;;;;;;;9.50;4.38;;;;;;;;;;5076518;28;20032;-54
2022/11/08 04:28:21;;;;;;;6.47;4.43;;;;;;;;;;5088905;28;20020;-54
2022/11/08 04:30:50;;;;;;;13.45;4.53;;;;;;;;;;5079788;28;20041;-55
2022/11/08 04:33:15;;;;;;;12.95;5.22;;;;;;;;;;5082295;28;20074;-54
2022/11/08 04:35:40;;;;;;;16.63;5.38;;;;;;;;;;5077957;28;20035;-57
2022/11/08 04:38:06;;;;;;;12.48;5.45;;;;;;;;;;5085069;28;20027;-54
2022/11/08 04:40:31;;;;;;;11.80;5.22;;;;;;;;;;5080681;28;20036;-54
2022/11/08 04:42:56;;;;;;;10.27;5.03;;;;;;;;;;5075326;28;20504;-55
2022/11/08 04:45:21;;;;;;;14.80;5.07;;;;;;;;;;5074939;28;20028;-54
2022/11/08 04:47:47;;;;;;;9.73;4.40;;;;;;;;;;5082570;28;20015;-54
2022/11/08 04:50:12;;;;;;;10.48;4.32;;;;;;;;;;5072026;28;20702;-55
2022/11/08 04:52:37;;;;;;;10.40;4.68;;;;;;;;;;5076191;28;20028;-55
2022/11/08 04:55:03;;;;;;;12.18;5.47;;;;;;;;;;5078121;28;20085;-54
2022/11/08 04:57:28;;;;;;;13.25;5.15;;;;;;;;;;5075356;28;20020;-55
2022/11/08 04:59:53;;;;;;;13.50;4.15;;;;;;;;;;5081809;28;20415;-57
2022/11/08 05:02:18;;;;;;;12.40;4.78;;;;;;;;;;5069404;28;20020;-55
2022/11/08 05:04:44;;;;;;;10.15;4.28;;;;;;;;;;5069229;28;20049;-58
2022/11/08 05:07:09;;;;;;;7.68;4.18;;;;;;;;;;5075675;28;20104;-54
2022/11/08 05:09:34;;;;;;;14.68;4.57;;;;;;;;;;5081155;28;20406;-55
2022/11/08 05:11:59;;;;;;;8.70;4.40;;;;;;;;;;5109507;27;20028;-55
2022/11/08 05:14:25;;;;;;;12.98;4.85;;;;;;;;;;5081758;28;20090;-52
2022/11/08 05:16:50;;;;;;;14.07;4.97;;;;;;;;;;5079256;28;20107;-58
2022/11/08 05:23:22;;;;;;;12.45;5.13;;;;;;;;;;5081973;28;21057;-57
2022/11/08 05:24:44;;;;;;;12.05;5.40;;;;;;;;;;5074835;28;20042;-56
2022/11/08 05:27:09;;;;;;;12.50;4.63;;;;;;;;;;5077190;28;20020;-57
2022/11/08 05:29:35;;;;;;;11.65;4.28;;;;;;;;;;5081902;28;20051;-57
2022/11/08 05:32:00;;;;;;;13.77;4.40;;;;;;;;;;5087796;28;20025;-56
2022/11/08 05:34:25;;;;;;;14.77;5.05;;;;;;;;;;5088414;28;20034;-57
2022/11/08 05:36:50;;;;;;;10.82;4.25;;;;;;;;;;5081480;28;20116;-56
2022/11/08 05:39:15;;;;;;;9.70;5.10;;;;;;;;;;5085002;28;20103;-56
2022/11/08 05:41:41;;;;;;;12.57;4.95;;;;;;;;;;5077680;28;20012;-56
2022/11/08 05:44:06;;;;;;;11.73;4.70;;;;;;;;;;5079452;28;20403;-56
2022/11/08 05:46:31;;;;;;;13.60;4.68;;;;;;;;;;5091955;28;20016;-56
2022/11/08 05:48:56;;;;;;;15.02;4.70;;;;;;;;;;5085446;28;20031;-56
2022/11/08 05:51:22;;;;;;;9.82;4.75;;;;;;;;;;5078334;28;20463;-56
2022/11/08 05:53:47;;;;;;;8.70;5.53;;;;;;;;;;5081792;28;20393;-56
2022/11/08 05:56:12;;;;;;;9.10;5.25;;;;;;;;;;5077332;28;20024;-57
2022/11/08 05:58:37;;;;;;;7.38;4.47;;;;;;;;;;5080971;28;20569;-57
2022/11/08 06:01:05;;;;;;;17.85;5.20;;;;;;;;;;5077132;28;20036;-55
2022/11/08 06:03:31;;;;;;;8.90;4.65;;;;;;;;;;5081981;28;20692;-55
2022/11/08 06:06:00;;;;;;;8.50;5.10;;;;;;;;;;5079947;28;20216;-57
2022/11/08 06:08:25;;;;;;;9.38;4.90;;;;;;;;;;5084112;28;20060;-56
2022/11/08 06:10:50;;;;;;;9.70;5.25;;;;;;;;;;5080402;28;20066;-56
2022/11/08 06:13:15;;;;;;;8.27;4.43;;;;;;;;;;5087900;28;20086;-56
2022/11/08 06:15:41;;;;;;;8.55;4.25;;;;;;;;;;5080425;28;20115;-56
2022/11/08 06:18:06;;;;;;;8.45;4.53;;;;;;;;;;5084471;28;20082;-55
2022/11/08 06:20:32;;;;;;;11.35;5.22;;;;;;;;;;5080285;28;20023;-56
2022/11/08 06:22:57;;;;;;;8.27;5.43;;;;;;;;;;5079669;28;20019;-56
2022/11/08 06:25:22;;;;;;;10.88;6.30;;;;;;;;;;5077382;28;20077;-56
2022/11/08 06:27:47;;;;;;;14.60;7.00;;;;;;;;;;5083441;28;20024;-60
2022/11/08 06:30:13;;;;;;;13.65;7.57;;;;;;;;;;5074497;28;20032;-57
2022/11/08 06:32:38;;;;;;;14.75;5.65;;;;;;;;;;5084002;28;20043;-57
2022/11/08 06:35:03;;;;;;;10.02;5.75;;;;;;;;;;5081804;28;20020;-57
2022/11/08 06:37:29;;;;;;;12.05;5.95;;;;;;;;;;5082498;28;20095;-57
2022/11/08 06:39:54;;;;;;;12.35;6.35;;;;;;;;;;5079117;28;20035;-56
2022/11/08 06:42:19;;;;;;;13.60;7.53;;;;;;;;;;5079686;28;20132;-56
2022/11/08 06:44:45;;;;;;;12.85;6.65;;;;;;;;;;5072010;28;20035;-56
2022/11/08 06:47:10;;;;;;;13.07;6.05;;;;;;;;;;5080665;28;20027;-56
2022/11/08 06:49:36;;;;;;;8.90;6.28;;;;;;;;;;5069940;28;20031;-54
2022/11/08 06:52:01;;;;;;;12.40;6.47;;;;;;;;;;5073964;28;20031;-56
2022/11/08 06:54:27;;;;;;;19.17;6.80;;;;;;;;;;5074449;28;20024;-55
2022/11/08 06:56:54;;;;;;;15.75;6.18;;;;;;;;;;5094677;28;20027;-57
2022/11/08 06:59:19;;;;;;;30.20;6.55;;;;;;;;;;5083829;28;20025;-57
2022/11/08 07:01:45;;;;;;;16.13;6.63;;;;;;;;;;5082920;28;20019;-57
2022/11/08 07:04:10;;;;;;;10.13;6.32;;;;;;;;;;5075633;28;20544;-57
2022/11/08 07:06:35;;;;;;;15.05;7.38;;;;;;;;;;5085115;28;20020;-57
2022/11/08 07:09:01;;;;;;;11.95;7.03;;;;;;;;;;5077235;28;20447;-57
2022/11/08 07:11:26;;;;;;;19.75;8.35;;;;;;;;;;5086159;28;20048;-58
2022/11/08 07:13:51;;;;;;;15.05;7.97;;;;;;;;;;5077132;28;20024;-57
2022/11/08 07:16:16;;;;;;;15.82;8.30;;;;;;;;;;5079145;28;20042;-57
2022/11/08 07:18:42;;;;;;;12.48;7.18;;;;;;;;;;5079307;28;20012;-56
2022/11/08 07:21:07;;;;;;;12.52;7.40;;;;;;;;;;5083925;28;20024;-57
2022/11/08 07:23:32;;;;;;;11.60;7.85;;;;;;;;;;5073217;28;20032;-57
2022/11/08 07:26:01;;;;;;;13.13;7.60;;;;;;;;;;5086961;28;20019;-57
2022/11/08 07:28:26;;;;;;;12.30;7.03;;;;;;;;;;5079541;28;20016;-56
2022/11/08 07:30:55;;;;;;;18.80;9.02;;;;;;;;;;5075087;28;20031;-57
2022/11/08 07:33:21;;;;;;;12.45;7.90;;;;;;;;;;5082806;28;20020;-58
2022/11/08 07:35:46;;;;;;;16.10;7.03;;;;;;;;;;5084288;28;20366;-56
2022/11/08 07:38:12;;;;;;;16.38;6.28;;;;;;;;;;5079554;28;20021;-55
2022/11/08 07:40:37;;;;;;;11.85;6.10;;;;;;;;;;5075501;28;20104;-56
2022/11/08 07:43:02;;;;;;;14.27;6.10;;;;;;;;;;5080406;28;20096;-57
2022/11/08 07:45:28;;;;;;;14.45;6.65;;;;;;;;;;5081547;28;20031;-56
2022/11/08 07:47:57;;;;;;;12.00;5.80;;;;;;;;;;5085510;28;20428;-56
2022/11/08 07:50:22;;;;;;;6.15;2.83;;;;;;;;;;5077452;28;20110;-56
2022/11/08 07:52:48;;;;;;;8.02;3.72;;;;;;;;;;5075979;28;20113;-57
2022/11/08 07:55:13;;;;;;;8.80;3.15;;;;;;;;;;5070306;28;20035;-57
2022/11/08 07:57:38;;;;;;;5.22;2.80;;;;;;;;;;5091313;28;20106;-56
2022/11/08 08:00:04;;;;;;;5.88;2.53;;;;;;;;;;5071548;28;20028;-57
2022/11/08 08:02:29;;;;;;;5.90;2.17;;;;;;;;;;5077242;28;20518;-56
2022/11/08 08:04:55;;;;;;;4.20;2.45;;;;;;;;;;5070524;28;20520;-55
2022/11/08 08:07:20;;;;;;;5.32;2.70;;;;;;;;;;5082794;28;20533;-57
2022/11/08 08:09:45;;;;;;;6.78;3.00;;;;;;;;;;5073421;28;20016;-57
2022/11/08 08:12:10;;;;;;;6.40;2.97;;;;;;;;;;5074203;28;20138;-55
2022/11/08 08:14:36;;;;;;;7.30;3.55;;;;;;;;;;5081890;28;20363;-57
2022/11/08 08:17:01;;;;;;;5.70;2.47;;;;;;;;;;5076435;28;20430;-56
2022/11/08 08:19:26;;;;;;;4.07;2.10;;;;;;;;;;5077445;28;20019;-55
2022/11/08 08:21:51;;;;;;;8.45;2.90;;;;;;;;;;5077389;28;20398;-55
2022/11/08 08:24:17;;;;;;;2.53;1.60;;;;;;;;;;5087334;28;20035;-57
2022/11/08 08:26:42;;;;;;;7.15;2.40;;;;;;;;;;5082769;28;20020;-56
2022/11/08 08:29:07;;;;;;;7.85;2.40;;;;;;;;;;5071291;28;20028;-56
2022/11/08 08:31:33;;;;;;;4.35;2.58;;;;;;;;;;5078203;28;20063;-57
2022/11/08 08:33:58;;;;;;;11.02;2.33;;;;;;;;;;5084306;28;20578;-56
2022/11/08 08:36:23;;;;;;;4.50;2.30;;;;;;;;;;5079277;28;20091;-56
2022/11/08 08:38:48;;;;;;;4.65;2.40;;;;;;;;;;5076126;28;20019;-57
2022/11/08 08:41:14;;;;;;;4.53;2.17;;;;;;;;;;5083406;28;20534;-56
2022/11/08 08:43:39;;;;;;;4.28;2.20;;;;;;;;;;5080676;28;20022;-56
2022/11/08 08:46:04;;;;;;;4.38;2.28;;;;;;;;;;5074490;28;20051;-54
2022/11/08 08:48:30;;;;;;;8.52;2.30;;;;;;;;;;5071086;28;20111;-56
2022/11/08 08:50:55;;;;;;;5.65;2.13;;;;;;;;;;5087973;28;20120;-59
2022/11/08 08:53:20;;;;;;;4.60;2.40;;;;;;;;;;5088828;28;20017;-59
2022/11/08 08:55:46;;;;;;;5.22;2.25;;;;;;;;;;5076278;28;20020;-55
2022/11/08 08:58:12;;;;;;;4.63;2.40;;;;;;;;;;5073187;28;20056;-55
2022/11/08 09:00:37;;;;;;;6.32;2.47;;;;;;;;;;5109146;27;20108;-57
2022/11/08 09:03:08;;;;;;;4.95;2.30;;;;;;;;;;5074044;28;20016;-56
2022/11/08 09:05:33;;;;;;;4.78;2.55;;;;;;;;;;5085753;28;20071;-56
2022/11/08 09:07:59;;;;;;;4.68;2.30;;;;;;;;;;5077766;28;20108;-56
2022/11/08 09:10:24;;;;;;;4.95;2.20;;;;;;;;;;5079977;28;20043;-56
2022/11/08 09:12:50;;;;;;;6.57;2.08;;;;;;;;;;5075760;28;20019;-56
2022/11/08 09:15:15;;;;;;;4.95;2.38;;;;;;;;;;5065925;28;20031;-57
2022/11/08 09:17:41;;;;;;;3.25;2.13;;;;;;;;;;5083731;28;20081;-56
2022/11/08 09:20:06;;;;;;;5.75;2.20;;;;;;;;;;5084813;28;20016;-56
2022/11/08 09:22:32;;;;;;;5.38;2.38;;;;;;;;;;5083201;28;20387;-56
2022/11/08 09:24:57;;;;;;;6.80;2.20;;;;;;;;;;5075474;28;20511;-57
2022/11/08 09:27:23;;;;;;;5.00;2.15;;;;;;;;;;5067025;28;20304;-56
2022/11/08 09:29:48;;;;;;;5.40;2.42;;;;;;;;;;5080757;28;20730;-58
2022/11/08 09:32:13;;;;;;;6.18;2.10;;;;;;;;;;5081386;28;20027;-58
2022/11/08 09:34:38;;;;;;;7.95;2.58;;;;;;;;;;5077072;28;20023;-56
2022/11/08 09:37:04;;;;;;;5.75;2.50;;;;;;;;;;5079235;28;20024;-56
2022/11/08 09:39:29;;;;;;;3.88;2.20;;;;;;;;;;5078032;28;20055;-56
2022/11/08 09:41:57;;;;;;;5.18;2.33;;;;;;;;;;5081540;28;20025;-58
2022/11/08 09:44:29;;;;;;;4.90;2.22;;;;;;;;;;5077845;28;20542;-58
2022/11/08 09:46:54;;;;;;;5.22;2.30;;;;;;;;;;5080036;28;20019;-56
2022/11/08 09:49:25;;;;;;;5.63;2.30;;;;;;;;;;5079666;28;20021;-58
2022/11/08 09:51:51;;;;;;;5.40;2.40;;;;;;;;;;5075955;28;20027;-56
2022/11/08 09:54:28;;;;;;;4.43;1.73;;;;;;;;;;5076808;28;20145;-57
2022/11/08 09:56:54;;;;;;;4.07;2.17;;;;;;;;;;5080930;28;20011;-57
2022/11/08 09:59:22;;;;;;;4.40;2.25;;;;;;;;;;5076966;28;20490;-57
2022/11/08 10:01:48;;;;;;;3.10;1.90;;;;;;;;;;5077857;28;20548;-56
2022/11/08 10:04:14;;;;;;;5.68;2.10;;;;;;;;;;5083444;28;20040;-57
2022/11/08 10:06:43;;;;;;;5.05;2.10;;;;;;;;;;5083500;28;20035;-56
2022/11/08 10:09:12;;;;;;;5.70;2.40;;;;;;;;;;5072037;28;20470;-57
2022/11/08 10:11:38;;;;;;;4.88;2.40;;;;;;;;;;5111832;27;20126;-57
2022/11/08 10:14:03;;;;;;;5.38;2.30;;;;;;;;;;5091854;28;20474;-57
2022/11/08 10:16:31;;;;;;;6.00;1.92;;;;;;;;;;5085923;28;20112;-57
2022/11/08 10:19:09;;;;;;;7.07;2.17;;;;;;;;;;5110430;27;20043;-57
2022/11/08 10:21:50;;;;;;;3.53;1.90;;;;;;;;;;5098608;28;20082;-56
2022/11/08 10:24:21;;;;;;;4.50;2.35;;;;;;;;;;5074130;28;20069;-56
2022/11/08 10:26:46;;;;;;;6.95;2.20;;;;;;;;;;5079191;28;20062;-56
2022/11/08 10:29:30;;;;;;;4.22;1.90;;;;;;;;;;5080502;28;20051;-56
2022/11/08 10:31:57;;;;;;;3.60;2.20;;;;;;;;;;5080574;28;20058;-56
2022/11/08 10:34:23;;;;;;;3.65;1.95;;;;;;;;;;5078609;28;20085;-55
2022/11/08 10:36:50;;;;;;;4.38;2.00;;;;;;;;;;5078450;28;20502;-56
2022/11/08 10:39:15;;;;;;;3.55;2.17;;;;;;;;;;5112059;27;20026;-56
2022/11/08 10:41:59;;;;;;;6.60;2.10;;;;;;;;;;5082361;28;20015;-57
2022/11/08 10:44:24;;;;;;;4.88;2.30;;;;;;;;;;5080257;28;20434;-56
2022/11/08 10:46:55;;;;;;;3.72;2.05;;;;;;;;;;5080754;28;20008;-57
2022/11/08 10:49:24;;;;;;;3.97;2.00;;;;;;;;;;5080652;28;20020;-56
2022/11/08 10:51:50;;;;;;;4.20;2.20;;;;;;;;;;5085266;28;20033;-56
2022/11/08 10:54:34;;;;;;;5.30;2.28;;;;;;;;;;5077796;28;20025;-56
2022/11/08 10:57:00;;;;;;;6.68;2.50;;;;;;;;;;5085855;28;20043;-56
2022/11/08 10:59:28;;;;;;;5.72;3.10;;;;;;;;;;5080273;28;20070;-57
2022/11/08 11:01:54;;;;;;;6.65;2.47;;;;;;;;;;5090600;28;20548;-56
2022/11/08 11:04:29;;;;;;;5.55;2.40;;;;;;;;;;5089558;28;20115;-56
2022/11/08 11:06:59;;;;;;;3.47;2.00;;;;;;;;;;5086585;28;20067;-56
2022/11/08 11:09:24;;;;;;;4.90;2.40;;;;;;;;;;5082728;28;20026;-56
2022/11/08 11:11:56;;;;;;;3.92;2.20;;;;;;;;;;5081831;28;20114;-56
2022/11/08 11:14:21;;;;;;;8.20;2.28;;;;;;;;;;5083543;28;20023;-55
2022/11/08 11:16:52;;;;;;;4.13;2.15;;;;;;;;;;5077801;28;20382;-56
2022/11/08 11:19:18;;;;;;;6.57;2.00;;;;;;;;;;5086150;28;20674;-56
2022/11/08 11:21:43;;;;;;;5.78;2.25;;;;;;;;;;5088043;28;20073;-56
2022/11/08 11:24:16;;;;;;;3.97;1.98;;;;;;;;;;5108274;27;20491;-56
2022/11/08 11:26:47;;;;;;;4.00;2.10;;;;;;;;;;5078374;28;20011;-55
2022/11/08 11:29:14;;;;;;;6.25;2.22;;;;;;;;;;5086857;28;20040;-56
2022/11/08 11:31:40;;;;;;;3.67;2.10;;;;;;;;;;5072352;28;20028;-55
2022/11/08 11:34:18;;;;;;;3.63;1.90;;;;;;;;;;5081297;28;20029;-56
2022/11/08 11:36:52;;;;;;;4.75;2.00;;;;;;;;;;5080125;28;20053;-55
2022/11/08 11:39:21;;;;;;;3.30;1.85;;;;;;;;;;5079605;28;20023;-57
2022/11/08 11:41:48;;;;;;;6.88;2.10;;;;;;;;;;5073640;28;20550;-56
2022/11/08 11:44:16;;;;;;;5.60;2.15;;;;;;;;;;5073847;28;20036;-56
2022/11/08 11:46:50;;;;;;;3.10;1.85;;;;;;;;;;5077298;28;20069;-56
2022/11/08 11:49:17;;;;;;;4.07;1.90;;;;;;;;;;5087439;28;20015;-56
2022/11/08 11:51:42;;;;;;;7.32;1.98;;;;;;;;;;5094472;28;20035;-55
2022/11/08 11:54:09;;;;;;;5.22;2.30;;;;;;;;;;5073192;28;20023;-56
2022/11/08 11:56:53;;;;;;;4.95;2.10;;;;;;;;;;5092040;27;20042;-56
2022/11/08 11:59:18;;;;;;;3.70;2.00;;;;;;;;;;5073228;28;20032;-56
2022/11/08 12:02:02;;;;;;;4.80;2.00;;;;;;;;;;5097091;28;20030;-56
2022/11/08 12:04:37;;;;;;;3.75;2.00;;;;;;;;;;5087792;28;20362;-56
2022/11/08 12:07:20;;;;;;;5.22;2.00;;;;;;;;;;5068978;28;20108;-56
2022/11/08 12:09:58;;;;;;;4.35;2.10;;;;;;;;;;5076669;28;20718;-56
2022/11/08 12:12:23;;;;;;;5.85;2.03;;;;;;;;;;5109369;27;20024;-55
2022/11/08 12:15:07;;;;;;;8.02;2.40;;;;;;;;;;5065908;28;20383;-56
2022/11/08 12:17:42;;;;;;;4.72;2.03;;;;;;;;;;5079868;28;20025;-56
2022/11/08 12:20:07;;;;;;;5.30;2.20;;;;;;;;;;5078839;28;20029;-57
2022/11/08 12:22:35;;;;;;;5.85;2.13;;;;;;;;;;5078269;28;20707;-56
2022/11/08 12:25:01;;;;;;;4.00;2.05;;;;;;;;;;5080661;28;20557;-56
2022/11/08 12:27:44;;;;;;;4.80;1.70;;;;;;;;;;5089349;28;20106;-56
2022/11/08 12:30:19;;;;;;;5.38;2.30;;;;;;;;;;5074381;28;20021;-57
2022/11/08 12:32:56;;;;;;;3.38;2.03;;;;;;;;;;5073795;28;20390;-58
2022/11/08 12:35:40;;;;;;;8.75;2.38;;;;;;;;;;5072159;28;20320;-56
2022/11/08 12:38:14;;;;;;;6.03;2.10;;;;;;;;;;5073861;28;20024;-55
2022/11/08 12:40:55;;;;;;;4.53;2.00;;;;;;;;;;5075826;28;20538;-57
2022/11/08 12:43:26;;;;;;;6.15;2.03;;;;;;;;;;5071652;28;20009;-56
2022/11/08 12:45:56;;;;;;;4.65;2.17;;;;;;;;;;5076098;28;20040;-57
2022/11/08 12:48:21;;;;;;;4.38;2.00;;;;;;;;;;5081436;28;20016;-57
2022/11/08 12:51:05;;;;;;;4.88;2.80;;;;;;;;;;5080039;28;20042;-57
2022/11/08 12:53:36;;;;;;;6.30;2.53;;;;;;;;;;5077333;28;20048;-56
2022/11/08 12:56:02;;;;;;;4.47;2.08;;;;;;;;;;5074850;28;20059;-56
2022/11/08 12:58:31;;;;;;;6.18;2.00;;;;;;;;;;5088508;28;20066;-56
2022/11/08 13:00:58;;;;;;;6.50;2.38;;;;;;;;;;5080024;28;20478;-57
2022/11/08 13:03:41;;;;;;;4.78;2.13;;;;;;;;;;5069124;28;20047;-56
2022/11/08 13:06:25;;;;;;;3.80;2.00;;;;;;;;;;5083710;28;20052;-55
2022/11/08 13:08:50;;;;;;;4.25;2.05;;;;;;;;;;5074681;28;20086;-55
2022/11/08 13:11:19;;;;;;;5.57;2.28;;;;;;;;;;5079064;28;20088;-56
2022/11/08 13:13:54;;;;;;;7.00;2.22;;;;;;;;;;5071465;28;20469;-54
2022/11/08 13:16:20;;;;;;;4.82;2.38;;;;;;;;;;5076978;28;20031;-55
2022/11/08 13:18:52;;;;;;;5.45;2.40;;;;;;;;;;5061539;28;20370;-56
2022/11/08 13:21:26;;;;;;;3.25;1.98;;;;;;;;;;5070286;28;20526;-56
2022/11/08 13:23:52;;;;;;;7.20;2.45;;;;;;;;;;5071242;28;20437;-58
2022/11/08 13:26:23;;;;;;;3.47;2.38;;;;;;;;;;5073872;28;20111;-57
2022/11/08 13:28:49;;;;;;;6.03;2.75;;;;;;;;;;5068096;28;20028;-56
2022/11/08 13:31:16;;;;;;;7.85;2.13;;;;;;;;;;5078125;28;20576;-56
2022/11/08 13:33:43;;;;;;;6.45;2.33;;;;;;;;;;5085935;28;20212;-56
2022/11/08 13:36:18;;;;;;;5.78;2.25;;;;;;;;;;5077701;28;20028;-57
2022/11/08 13:39:09;;;;;;;4.57;2.30;;;;;;;;;;5072719;28;20383;-55
2022/11/08 13:41:40;;;;;;;4.20;2.67;;;;;;;;;;5077129;28;20020;-55
2022/11/08 13:44:07;;;;;;;7.50;3.45;;;;;;;;;;5112107;27;20605;-56
2022/11/08 13:46:32;;;;;;;3.25;2.08;;;;;;;;;;5080810;28;20143;-55
2022/11/08 13:49:03;;;;;;;3.88;2.00;;;;;;;;;;5078007;28;20447;-55
2022/11/08 13:51:29;;;;;;;4.40;2.00;;;;;;;;;;5073064;28;20033;-56
2022/11/08 13:54:18;;;;;;;4.93;1.90;;;;;;;;;;5081673;28;20785;-56
2022/11/08 13:56:56;;;;;;;6.55;2.90;;;;;;;;;;5087556;28;20051;-56
2022/11/08 13:59:30;;;;;;;4.45;2.13;;;;;;;;;;5076647;28;20024;-56
2022/11/08 14:02:31;;;;;;;5.25;2.10;;;;;;;;;;5075259;28;20026;-56
2022/11/08 14:05:06;;;;;;;4.65;2.08;;;;;;;;;;5063057;28;20131;-57
2022/11/08 14:07:35;;;;;;;5.93;2.25;;;;;;;;;;5074883;28;20036;-56
2022/11/08 14:10:18;;;;;;;4.18;2.13;;;;;;;;;;5071932;28;20593;-56
2022/11/08 14:12:43;;;;;;;3.97;1.95;;;;;;;;;;5060579;28;20024;-55
2022/11/08 14:15:38;;;;;;;10.23;2.20;;;;;;;;;;5079150;28;20073;-56
2022/11/08 14:18:03;;;;;;;3.28;2.05;;;;;;;;;;5010748;28;20149;-55
2022/11/08 14:20:31;;;;;;;5.13;2.03;;;;;;;;;;5074807;28;20593;-55
2022/11/08 14:22:56;;;;;;;5.22;2.20;;;;;;;;;;5080562;28;20056;-56
2022/11/08 14:25:29;;;;;;;5.53;2.30;;;;;;;;;;5075235;28;20066;-56
2022/11/08 14:27:54;;;;;;;5.55;1.95;;;;;;;;;;5074123;28;20073;-56
2022/11/08 14:30:20;;;;;;;4.57;2.05;;;;;;;;;;5073515;28;20115;-55
2022/11/08 14:32:45;;;;;;;5.07;2.03;;;;;;;;;;5112154;27;20027;-57
2022/11/08 14:35:24;;;;;;;3.15;1.83;;;;;;;;;;5101281;27;20028;-55
2022/11/08 14:37:50;;;;;;;9.13;2.33;;;;;;;;;;5081637;28;20073;-56
2022/11/08 14:40:25;;;;;;;3.85;2.00;;;;;;;;;;5079365;28;20056;-55
2022/11/08 14:42:51;;;;;;;4.95;2.40;;;;;;;;;;5113558;27;20458;-56
2022/11/08 14:45:16;;;;;;;5.13;2.20;;;;;;;;;;5081590;28;20131;-55
2022/11/08 14:47:42;;;;;;;6.22;2.38;;;;;;;;;;5076891;28;20042;-56
2022/11/08 14:50:14;;;;;;;3.67;2.10;;;;;;;;;;5082107;28;20401;-56
2022/11/08 14:52:39;;;;;;;4.40;2.22;;;;;;;;;;5087847;28;20028;-55
2022/11/08 14:55:06;;;;;;;4.15;2.00;;;;;;;;;;5074947;28;20689;-55
2022/11/08 14:57:31;;;;;;;4.75;1.90;;;;;;;;;;5083543;28;20035;-56
2022/11/08 14:59:56;;;;;;;3.25;2.03;;;;;;;;;;5078483;28;20012;-55
2022/11/08 15:02:22;;;;;;;4.57;2.00;;;;;;;;;;5117073;27;20027;-55